Time;durP1;ratioP1;P1;durP2;ratioP2;P2;SDS_P1;SDS_P2;PMS_P1;PMS_P2;Temp;Humidity;BMP_temperature;BMP_pressure;BME280_temperature;BME280_humidity;BME280_pressure;Samples;Min_cycle;Max_cycle;Signal;HPM_P1;HPM_P2
2021/11/20 00:01:27;;;;;;;14.95;11.48;;;10.50;99.90;;;;;;12273000;28;20467;-88
2021/11/20 00:07:30;;;;;;;16.20;11.85;;;10.50;99.90;;;;;;12270518;28;20113;-88
2021/11/20 00:13:32;;;;;;;18.95;12.45;;;10.50;99.90;;;;;;12269834;28;20145;-89
2021/11/20 00:19:35;;;;;;;17.92;11.32;;;10.50;99.90;;;;;;12253311;28;20067;-88
2021/11/20 00:25:47;;;;;;;17.42;10.20;;;10.60;99.90;;;;;;12243476;28;20731;-88
2021/11/20 00:31:57;;;;;;;14.20;9.85;;;10.60;99.90;;;;;;12261574;28;20472;-88
2021/11/20 00:38:00;;;;;;;18.23;11.63;;;10.60;99.90;;;;;;12255479;28;21035;-88
2021/11/20 00:44:03;;;;;;;16.98;11.85;;;10.60;99.90;;;;;;12256205;28;20395;-89
2021/11/20 00:50:08;;;;;;;18.02;12.25;;;10.50;99.90;;;;;;12254039;28;20058;-88
2021/11/20 00:56:11;;;;;;;16.63;11.90;;;10.50;99.90;;;;;;12268535;28;20090;-88
2021/11/20 01:02:13;;;;;;;15.23;11.25;;;10.50;99.90;;;;;;12270818;28;20149;-87
2021/11/20 01:08:17;;;;;;;21.15;12.82;;;10.50;99.90;;;;;;12263957;28;20058;-88
2021/11/20 01:14:21;;;;;;;18.50;11.95;;;10.40;99.90;;;;;;12235595;28;20051;-88
2021/11/20 01:20:24;;;;;;;19.88;11.93;;;10.50;99.90;;;;;;12264687;28;20051;-88
2021/11/20 01:26:26;;;;;;;15.57;10.57;;;10.40;99.90;;;;;;12246312;28;20484;-88
2021/11/20 01:32:28;;;;;;;15.70;10.57;;;10.40;99.90;;;;;;12250262;28;20051;-87
2021/11/20 01:38:29;;;;;;;13.93;9.63;;;10.50;99.90;;;;;;12250836;28;20055;-89
2021/11/20 01:44:49;;;;;;;14.10;9.90;;;10.50;99.90;;;;;;12245514;28;20051;-89
2021/11/20 01:51:05;;;;;;;15.57;10.32;;;10.50;99.90;;;;;;12262830;28;20055;-89
2021/11/20 01:57:33;;;;;;;17.15;10.65;;;10.50;99.90;;;;;;12249018;28;20110;-89
2021/11/20 02:03:46;;;;;;;15.98;10.52;;;10.50;99.90;;;;;;12245311;28;20087;-88
2021/11/20 02:10:08;;;;;;;14.33;9.93;;;10.50;99.90;;;;;;12263931;28;20058;-89
2021/11/20 02:16:24;;;;;;;20.13;13.00;;;10.40;99.90;;;;;;12270184;28;20073;-89
2021/11/20 02:22:34;;;;;;;19.05;13.02;;;10.30;99.90;;;;;;12278590;28;20043;-88
2021/11/20 02:28:36;;;;;;;24.55;14.38;;;10.30;99.90;;;;;;12264933;28;20680;-88
2021/11/20 02:34:38;;;;;;;25.90;15.95;;;10.20;99.90;;;;;;12249982;28;20480;-89
2021/11/20 02:40:41;;;;;;;30.55;18.20;;;10.20;99.90;;;;;;12242652;28;20063;-88
2021/11/20 02:46:47;;;;;;;29.17;18.52;;;10.20;99.90;;;;;;12241249;28;20642;-88
2021/11/20 02:52:49;;;;;;;32.55;19.48;;;10.20;99.90;;;;;;12255603;28;20051;-88
2021/11/20 02:58:52;;;;;;;34.80;20.52;;;10.30;99.90;;;;;;12250210;28;20471;-88
2021/11/20 03:04:54;;;;;;;33.97;21.67;;;10.30;99.90;;;;;;12245121;28;20055;-89
2021/11/20 03:10:56;;;;;;;32.40;21.27;;;10.20;99.90;;;;;;12240220;28;20051;-88
2021/11/20 03:17:02;;;;;;;33.90;22.48;;;10.20;99.90;;;;;;12247479;28;20055;-88
2021/11/20 03:23:07;;;;;;;41.33;23.70;;;10.20;99.90;;;;;;12259952;28;20495;-88
2021/11/20 03:29:09;;;;;;;35.92;23.83;;;10.20;99.90;;;;;;12246026;28;20658;-89
2021/11/20 03:35:12;;;;;;;38.03;24.02;;;10.30;99.90;;;;;;12238776;28;20105;-88
2021/11/20 03:41:14;;;;;;;41.53;25.17;;;10.20;99.90;;;;;;12257627;28;20966;-87
2021/11/20 03:47:17;;;;;;;42.80;25.67;;;10.30;99.90;;;;;;12241961;28;20560;-88
2021/11/20 03:53:19;;;;;;;39.92;25.55;;;10.30;99.90;;;;;;12255207;28;20051;-88
2021/11/20 03:59:21;;;;;;;36.70;24.90;;;10.20;99.90;;;;;;12246726;28;20054;-88
2021/11/20 04:05:24;;;;;;;41.17;25.63;;;10.30;99.90;;;;;;12238404;28;20090;-88
2021/11/20 04:11:28;;;;;;;42.78;26.10;;;10.20;99.90;;;;;;12258422;28;20491;-89
2021/11/20 04:17:30;;;;;;;38.38;26.45;;;10.20;99.90;;;;;;12265348;28;20170;-88
2021/11/20 04:23:32;;;;;;;40.70;26.20;;;10.20;99.90;;;;;;12250312;28;20055;-88
2021/11/20 04:29:34;;;;;;;46.08;27.25;;;10.10;99.90;;;;;;12249090;28;20051;-87
2021/11/20 04:35:37;;;;;;;45.45;26.88;;;10.00;99.90;;;;;;12249579;28;20571;-88
2021/11/20 04:41:39;;;;;;;46.63;28.52;;;10.10;99.90;;;;;;12249358;28;20142;-88
2021/11/20 04:47:41;;;;;;;43.25;28.02;;;10.10;99.90;;;;;;12251360;28;20103;-87
2021/11/20 04:53:46;;;;;;;44.28;28.42;;;10.10;99.90;;;;;;12259776;28;20055;-89
2021/11/20 04:59:48;;;;;;;45.38;27.85;;;10.00;99.90;;;;;;12266192;28;20051;-88
2021/11/20 05:05:52;;;;;;;41.20;28.30;;;10.00;99.90;;;;;;12279913;28;20159;-88
2021/11/20 05:11:54;;;;;;;40.88;27.67;;;10.00;99.90;;;;;;12267843;28;20443;-89
2021/11/20 05:17:56;;;;;;;40.25;27.38;;;10.00;99.90;;;;;;12253689;28;20062;-89
2021/11/20 05:23:58;;;;;;;40.55;27.67;;;10.00;99.90;;;;;;12248154;28;20055;-88
2021/11/20 05:30:11;;;;;;;44.03;28.52;;;10.00;99.90;;;;;;12248179;28;20073;-89
2021/11/20 05:36:14;;;;;;;36.63;25.63;;;9.90;99.90;;;;;;12236265;28;20130;-89
2021/11/20 05:42:17;;;;;;;35.13;25.90;;;10.00;99.90;;;;;;12260935;28;20059;-88
2021/11/20 05:48:19;;;;;;;37.05;25.25;;;9.90;99.90;;;;;;12243699;28;20047;-89
2021/11/20 05:54:22;;;;;;;38.38;24.95;;;9.90;99.90;;;;;;12243000;28;20083;-87
2021/11/20 06:00:28;;;;;;;33.25;23.63;;;10.00;99.90;;;;;;12247430;28;20047;-88
2021/11/20 06:06:30;;;;;;;33.78;23.95;;;9.90;99.90;;;;;;12268227;28;20055;-88
2021/11/20 06:12:33;;;;;;;35.25;23.73;;;10.00;99.90;;;;;;12250105;28;20081;-88
2021/11/20 06:18:34;;;;;;;34.13;24.98;;;9.90;99.90;;;;;;12239125;28;20622;-88
2021/11/20 06:24:36;;;;;;;34.65;23.05;;;9.90;99.90;;;;;;12235095;28;20066;-89
2021/11/20 06:30:41;;;;;;;34.92;24.15;;;9.90;99.90;;;;;;12245782;28;20094;-88
2021/11/20 06:36:44;;;;;;;33.63;22.75;;;9.80;99.90;;;;;;12250134;28;20097;-88
2021/11/20 06:42:46;;;;;;;33.88;22.40;;;9.80;99.90;;;;;;12241722;28;20051;-88
2021/11/20 06:48:48;;;;;;;35.55;23.45;;;9.80;99.90;;;;;;12259717;28;20454;-89
2021/11/20 06:54:50;;;;;;;36.30;23.67;;;9.80;99.90;;;;;;12268870;28;20134;-88
2021/11/20 07:00:57;;;;;;;35.50;23.08;;;9.80;99.90;;;;;;12260638;28;20047;-88
2021/11/20 07:07:05;;;;;;;33.63;22.90;;;9.80;99.90;;;;;;12254166;28;20071;-89
2021/11/20 07:13:08;;;;;;;33.35;23.08;;;9.80;99.90;;;;;;12247994;28;20147;-88
2021/11/20 07:19:12;;;;;;;35.78;23.67;;;9.80;99.90;;;;;;12260431;28;20059;-88
2021/11/20 07:25:14;;;;;;;33.83;24.48;;;9.80;99.90;;;;;;12258232;28;20086;-88
2021/11/20 07:31:17;;;;;;;35.95;24.73;;;9.80;99.90;;;;;;12250085;28;20227;-87
2021/11/20 07:37:20;;;;;;;33.05;23.73;;;9.80;99.90;;;;;;12242805;28;20055;-88
2021/11/20 07:43:22;;;;;;;32.15;23.38;;;9.90;99.90;;;;;;12241828;28;20055;-88
2021/11/20 07:49:24;;;;;;;28.13;21.63;;;9.90;99.90;;;;;;12251795;28;20170;-89
2021/11/20 07:55:26;;;;;;;34.03;21.88;;;9.90;99.90;;;;;;12255197;28;20039;-88
2021/11/20 08:01:28;;;;;;;31.15;20.67;;;9.90;99.90;;;;;;12255698;28;20047;-89
2021/11/20 08:07:31;;;;;;;29.13;19.77;;;9.80;99.90;;;;;;12261545;28;20043;-88
2021/11/20 08:13:35;;;;;;;26.95;19.77;;;9.80;99.90;;;;;;12258320;28;20048;-88
2021/11/20 08:19:37;;;;;;;28.87;19.03;;;9.90;99.90;;;;;;12252034;28;20121;-88
2021/11/20 08:25:43;;;;;;;25.30;18.30;;;9.90;99.90;;;;;;12257595;28;20531;-88
2021/11/20 08:31:47;;;;;;;25.63;18.50;;;10.00;99.90;;;;;;12262821;28;20093;-88
2021/11/20 08:37:49;;;;;;;25.95;18.13;;;10.00;99.90;;;;;;12247630;28;20074;-89
2021/11/20 08:43:51;;;;;;;26.92;19.20;;;10.00;99.90;;;;;;12246510;28;20047;-89
2021/11/20 08:49:53;;;;;;;23.40;17.65;;;10.10;99.90;;;;;;12254894;28;20113;-88
2021/11/20 08:55:56;;;;;;;25.63;17.48;;;10.10;99.90;;;;;;12247667;28;20058;-88
2021/11/20 09:02:21;;;;;;;26.48;16.77;;;10.10;99.90;;;;;;12253399;28;20474;-88
2021/11/20 09:08:33;;;;;;;23.60;16.23;;;10.20;99.90;;;;;;12232104;28;20165;-88
2021/11/20 09:14:40;;;;;;;23.40;16.58;;;10.20;99.90;;;;;;12238184;28;20237;-88
2021/11/20 09:20:42;;;;;;;22.48;15.48;;;10.10;99.90;;;;;;12238629;28;20061;-88
2021/11/20 09:26:44;;;;;;;20.63;15.15;;;10.20;99.90;;;;;;12238756;28;20141;-89
2021/11/20 09:32:46;;;;;;;19.95;13.88;;;10.30;99.90;;;;;;12268327;28;20460;-89
2021/11/20 09:38:49;;;;;;;22.15;15.98;;;10.30;99.90;;;;;;12264471;28;20506;-88
2021/11/20 09:44:55;;;;;;;22.13;15.18;;;10.40;99.90;;;;;;12251388;28;20050;-89
2021/11/20 09:51:04;;;;;;;24.10;15.68;;;10.40;99.90;;;;;;12255645;28;20050;-88
2021/11/20 09:57:13;;;;;;;26.48;17.08;;;10.40;99.90;;;;;;12244998;28;20051;-88
2021/11/20 10:03:36;;;;;;;27.25;17.80;;;10.40;99.90;;;;;;12241854;28;20116;-88
2021/11/20 10:09:46;;;;;;;28.42;19.42;;;10.40;99.90;;;;;;12233752;28;20050;-88
2021/11/20 10:16:15;;;;;;;33.33;20.90;;;10.40;99.90;;;;;;12242223;28;20121;-88
2021/11/20 10:22:48;;;;;;;33.22;22.65;;;10.50;99.90;;;;;;12237728;28;20583;-89
2021/11/20 10:29:14;;;;;;;41.35;25.77;;;10.40;99.90;;;;;;12238675;28;20316;-88
2021/11/20 10:35:33;;;;;;;44.13;26.85;;;10.50;99.90;;;;;;12236228;28;20407;-87
2021/11/20 10:41:38;;;;;;;47.88;28.10;;;10.50;99.90;;;;;;12237157;28;20063;-88
2021/11/20 10:47:57;;;;;;;48.20;27.83;;;10.40;99.90;;;;;;12241131;28;20166;-88
2021/11/20 10:54:11;;;;;;;48.45;25.77;;;10.50;99.90;;;;;;12259389;28;20051;-88
2021/11/20 11:00:32;;;;;;;42.28;23.48;;;10.40;99.90;;;;;;12237714;28;20090;-89
2021/11/20 11:06:55;;;;;;;43.33;24.05;;;10.40;99.90;;;;;;12242943;28;20051;-89
2021/11/20 11:13:29;;;;;;;40.53;24.33;;;10.40;99.90;;;;;;12254436;28;20441;-89
2021/11/20 11:20:02;;;;;;;40.55;23.27;;;10.40;99.90;;;;;;12244035;28;20575;-87
2021/11/20 11:26:10;;;;;;;34.00;19.02;;;10.30;99.90;;;;;;12247456;28;20047;-88
2021/11/20 11:32:14;;;;;;;37.70;22.25;;;10.30;99.90;;;;;;12267342;28;20043;-89
2021/11/20 11:38:19;;;;;;;48.57;29.47;;;10.30;99.90;;;;;;12237874;28;20078;-88
2021/11/20 11:44:51;;;;;;;53.03;30.52;;;10.20;99.90;;;;;;12263136;28;20046;-89
2021/11/20 11:50:59;;;;;;;50.33;29.40;;;10.10;99.90;;;;;;12266157;28;20091;-88
2021/11/20 11:57:21;;;;;;;37.42;23.63;;;10.10;99.90;;;;;;12265543;28;20043;-88
2021/11/20 12:03:34;;;;;;;35.20;22.40;;;10.00;99.90;;;;;;12245383;28;20059;-88
2021/11/20 12:09:47;;;;;;;38.50;23.40;;;10.10;99.90;;;;;;12266959;28;20059;-87
2021/11/20 12:16:21;;;;;;;39.53;23.08;;;10.10;99.90;;;;;;12261644;28;20504;-88
2021/11/20 12:22:34;;;;;;;38.10;22.40;;;10.10;99.90;;;;;;12244257;28;20494;-89
2021/11/20 12:28:43;;;;;;;38.83;22.83;;;10.10;99.90;;;;;;12264008;28;20590;-89
2021/11/20 12:35:40;;;;;;;36.58;23.05;;;10.00;99.90;;;;;;12243058;28;20787;-88
2021/11/20 12:42:23;;;;;;;38.58;24.33;;;9.90;99.90;;;;;;12178327;28;20077;-88
2021/11/20 12:48:48;;;;;;;40.42;24.52;;;10.00;99.90;;;;;;12232494;28;20059;-89
2021/11/20 12:55:11;;;;;;;41.20;25.15;;;9.90;99.90;;;;;;12244426;28;20126;-88
2021/11/20 13:01:19;;;;;;;39.90;24.73;;;9.90;99.90;;;;;;12245768;28;20113;-88
2021/11/20 13:07:25;;;;;;;38.60;24.77;;;9.90;99.90;;;;;;12256961;28;20055;-90
2021/11/20 13:13:50;;;;;;;37.60;24.25;;;9.90;99.90;;;;;;12239937;28;20101;-89
2021/11/20 13:19:57;;;;;;;35.78;23.75;;;9.90;99.90;;;;;;12252415;28;20365;-89
2021/11/20 13:26:02;;;;;;;37.92;24.23;;;9.90;99.90;;;;;;12244139;28;20058;-86
2021/11/20 13:32:10;;;;;;;36.83;24.23;;;9.80;99.90;;;;;;12242640;28;20419;-87
2021/11/20 13:38:16;;;;;;;35.28;25.30;;;9.70;99.90;;;;;;12244590;28;20055;-89
2021/11/20 13:44:19;;;;;;;38.47;25.85;;;9.60;99.90;;;;;;12241454;28;20047;-88
2021/11/20 13:50:22;;;;;;;54.75;32.85;;;9.60;99.90;;;;;;12247446;28;20051;-89
2021/11/20 13:56:25;;;;;;;40.08;25.35;;;9.60;99.90;;;;;;12243594;28;20518;-88
2021/11/20 14:02:27;;;;;;;42.15;27.08;;;9.60;99.90;;;;;;12242125;28;20567;-88
2021/11/20 14:08:40;;;;;;;39.08;26.08;;;9.60;99.90;;;;;;12235577;28;20062;-89
2021/11/20 14:14:42;;;;;;;37.05;25.90;;;9.60;99.90;;;;;;12239001;28;20055;-88
2021/11/20 14:20:54;;;;;;;41.75;26.67;;;9.50;99.90;;;;;;12263688;28;20063;-88
2021/11/20 14:27:00;;;;;;;40.33;25.08;;;9.50;99.90;;;;;;12241383;28;20468;-88
2021/11/20 14:33:12;;;;;;;37.97;24.80;;;9.50;99.90;;;;;;12239993;28;20047;-89
2021/11/20 14:39:27;;;;;;;38.60;25.88;;;9.40;99.90;;;;;;12240328;28;20374;-88
2021/11/20 14:45:29;;;;;;;39.53;23.70;;;9.40;99.90;;;;;;12249576;28;20187;-88
2021/11/20 14:51:44;;;;;;;41.08;25.80;;;9.30;99.90;;;;;;12242194;28;20059;-90
2021/11/20 14:57:54;;;;;;;41.75;26.55;;;9.40;99.90;;;;;;12269244;28;20137;-89
2021/11/20 15:03:57;;;;;;;47.13;29.50;;;9.30;99.90;;;;;;12249724;28;20075;-88
2021/11/20 15:09:59;;;;;;;51.92;30.48;;;9.20;99.90;;;;;;12240890;28;20061;-88
2021/11/20 15:16:06;;;;;;;50.90;29.60;;;9.20;99.90;;;;;;12244417;28;20388;-89
2021/11/20 15:22:08;;;;;;;52.17;30.52;;;9.20;99.90;;;;;;12240066;28;20542;-88
2021/11/20 15:28:12;;;;;;;51.65;29.05;;;9.20;99.90;;;;;;12243797;28;20488;-88
2021/11/20 15:34:15;;;;;;;49.28;29.58;;;9.20;99.90;;;;;;12257384;28;20047;-90
2021/11/20 15:40:17;;;;;;;53.05;29.35;;;9.20;99.90;;;;;;12235949;28;20058;-87
2021/11/20 15:46:19;;;;;;;46.85;27.92;;;9.20;99.90;;;;;;12260027;28;20062;-88
2021/11/20 15:52:23;;;;;;;49.33;29.58;;;9.20;99.90;;;;;;12230687;28;20496;-89
2021/11/20 15:58:25;;;;;;;45.50;27.92;;;9.30;99.90;;;;;;12242295;28;20078;-89
2021/11/20 16:04:28;;;;;;;50.33;28.25;;;9.20;99.90;;;;;;12248722;28;20046;-89
2021/11/20 16:10:30;;;;;;;48.20;29.40;;;9.30;99.90;;;;;;12251276;28;20051;-89
2021/11/20 16:16:34;;;;;;;48.95;29.70;;;9.20;99.90;;;;;;12254613;28;20047;-88
2021/11/20 16:22:37;;;;;;;50.60;29.30;;;9.20;99.90;;;;;;12251169;28;20583;-89
2021/11/20 16:28:45;;;;;;;47.90;29.42;;;9.20;99.90;;;;;;12243237;28;20063;-89
2021/11/20 16:34:48;;;;;;;49.30;29.65;;;9.20;99.90;;;;;;12242046;28;20102;-88
2021/11/20 16:40:50;;;;;;;51.75;29.73;;;9.20;99.90;;;;;;12250187;28;20813;-88
2021/11/20 16:46:54;;;;;;;54.00;30.77;;;9.20;99.90;;;;;;12250453;28;20054;-88
2021/11/20 16:52:56;;;;;;;48.40;29.67;;;9.10;99.90;;;;;;12261206;28;20057;-87
2021/11/20 16:58:58;;;;;;;54.13;29.15;;;9.20;99.90;;;;;;12711452;23;20426;-87
2021/11/20 17:05:00;;;;;;;51.33;28.67;;;9.10;99.90;;;;;;12294500;23;20113;-39
2021/11/20 17:11:02;;;;;;;48.67;28.48;;;9.10;99.90;;;;;;12198083;28;20150;-38
2021/11/20 17:17:06;;;;;;;48.45;28.25;;;9.10;99.90;;;;;;12217412;28;20479;-39
2021/11/20 17:23:08;;;;;;;43.53;26.23;;;9.10;99.90;;;;;;12228236;28;20676;-39
2021/11/20 17:29:10;;;;;;;53.05;28.73;;;9.00;99.90;;;;;;12234518;28;20334;-39
2021/11/20 17:35:12;;;;;;;44.30;25.70;;;9.00;99.90;;;;;;12234550;28;20039;-41
2021/11/20 17:41:15;;;;;;;45.78;26.92;;;9.00;99.90;;;;;;12231469;28;20043;-40
2021/11/20 17:47:17;;;;;;;46.78;26.85;;;9.10;99.90;;;;;;12247973;28;20078;-39
2021/11/20 17:53:19;;;;;;;48.28;26.38;;;9.10;99.90;;;;;;12247820;28;20825;-39
2021/11/20 17:59:21;;;;;;;42.55;24.10;;;9.00;99.90;;;;;;12250381;28;20062;-39
2021/11/20 18:05:23;;;;;;;42.88;25.63;;;9.00;99.90;;;;;;12228175;28;20111;-38
2021/11/20 18:11:30;;;;;;;47.03;25.25;;;9.10;99.90;;;;;;12182031;29;20060;-39
2021/11/20 18:17:35;;;;;;;43.13;25.20;;;9.20;99.90;;;;;;12206177;29;20066;-38
2021/11/20 18:23:40;;;;;;;43.22;23.80;;;9.10;99.90;;;;;;12200756;29;20134;-39
2021/11/20 18:29:42;;;;;;;46.25;25.15;;;9.10;99.90;;;;;;12201050;29;20492;-38
2021/11/20 18:35:44;;;;;;;48.63;25.15;;;9.00;99.90;;;;;;12205337;29;20058;-38
2021/11/20 18:41:47;;;;;;;49.80;26.25;;;9.00;99.90;;;;;;12187787;29;20059;-39
2021/11/20 18:47:50;;;;;;;46.72;25.02;;;8.90;99.90;;;;;;12202622;29;20809;-38
2021/11/20 18:53:53;;;;;;;41.42;23.70;;;8.90;99.90;;;;;;12209175;29;20051;-38
2021/11/20 18:59:57;;;;;;;44.15;23.75;;;9.00;99.90;;;;;;12209210;29;20062;-38
2021/11/20 19:06:00;;;;;;;41.22;22.77;;;9.00;99.90;;;;;;12206483;29;20060;-39
2021/11/20 19:12:02;;;;;;;43.17;22.50;;;8.90;99.90;;;;;;12206905;29;20555;-40
2021/11/20 19:18:05;;;;;;;42.15;22.95;;;8.90;99.90;;;;;;12204506;29;20826;-38
2021/11/20 19:24:07;;;;;;;44.33;24.00;;;8.90;99.90;;;;;;12204802;29;20083;-38
2021/11/20 19:30:15;;;;;;;40.53;22.75;;;8.90;99.90;;;;;;12205055;29;20078;-39
2021/11/20 19:36:19;;;;;;;42.88;23.17;;;8.80;99.90;;;;;;12214143;29;20105;-39
2021/11/20 19:42:23;;;;;;;44.53;24.97;;;8.80;99.90;;;;;;12220813;29;20302;-39
2021/11/20 19:48:25;;;;;;;45.13;24.30;;;8.80;99.90;;;;;;12220126;29;20185;-38
2021/11/20 19:54:28;;;;;;;44.50;25.55;;;8.70;99.90;;;;;;12216070;29;20039;-38
2021/11/20 20:00:32;;;;;;;44.03;25.55;;;8.60;99.90;;;;;;12220089;29;20059;-38
2021/11/20 20:06:35;;;;;;;41.50;24.33;;;8.70;99.90;;;;;;12219074;28;20055;-37
2021/11/20 20:12:37;;;;;;;48.58;26.75;;;8.60;99.90;;;;;;12218235;29;20480;-38
2021/11/20 20:18:40;;;;;;;60.13;33.25;;;8.60;99.90;;;;;;12218429;29;20848;-38
2021/11/20 20:24:42;;;;;;;64.82;35.33;;;8.60;99.90;;;;;;12217606;29;20063;-38
2021/11/20 20:30:45;;;;;;;68.67;36.47;;;8.40;99.90;;;;;;12217350;29;20490;-38
2021/11/20 20:36:47;;;;;;;75.28;36.83;;;8.30;99.90;;;;;;12213741;29;20139;-38
2021/11/20 20:43:05;;;;;;;80.22;39.38;;;8.10;99.90;;;;;;12214262;29;20603;-38
2021/11/20 20:49:08;;;;;;;73.50;37.92;;;8.10;99.90;;;;;;12220373;29;20062;-39
2021/11/20 20:55:11;;;;;;;84.30;40.47;;;8.10;99.90;;;;;;12217824;29;20046;-38
2021/11/20 21:01:13;;;;;;;81.53;39.10;;;8.10;99.90;;;;;;12186157;29;20131;-38
2021/11/20 21:07:15;;;;;;;90.10;41.47;;;8.00;99.90;;;;;;12211488;29;20078;-39
2021/11/20 21:13:19;;;;;;;88.60;43.28;;;7.90;99.90;;;;;;12205873;29;20055;-38
2021/11/20 21:25:27;;;;;;;93.97;45.05;;;7.80;99.90;;;;;;12213612;29;20083;-39
2021/11/20 21:31:29;;;;;;;97.47;46.90;;;7.80;99.90;;;;;;12208451;29;20055;-39
2021/11/20 21:37:45;;;;;;;98.38;46.50;;;7.70;99.90;;;;;;12207312;29;20839;-38
2021/11/20 21:43:47;;;;;;;86.97;45.70;;;7.70;99.90;;;;;;12207133;29;20512;-38
2021/11/20 21:49:49;;;;;;;80.80;43.95;;;7.80;99.90;;;;;;12208460;29;20059;-41
2021/11/20 21:55:51;;;;;;;86.47;43.75;;;7.80;99.90;;;;;;12211051;29;20142;-39
2021/11/20 22:01:53;;;;;;;82.70;43.58;;;7.70;99.90;;;;;;12203417;29;20076;-38
2021/11/20 22:08:06;;;;;;;81.82;43.42;;;7.70;99.90;;;;;;12247656;28;20107;-40
2021/11/20 22:14:08;;;;;;;78.57;41.45;;;7.70;99.90;;;;;;12254379;28;20105;-39
2021/11/20 22:20:11;;;;;;;78.72;42.58;;;7.70;99.90;;;;;;12255579;28;20082;-40
2021/11/20 22:26:13;;;;;;;75.93;41.17;;;7.70;99.90;;;;;;12252227;28;20150;-39
2021/11/20 22:32:17;;;;;;;79.20;40.90;;;7.70;99.90;;;;;;12254545;28;20058;-38
2021/11/20 22:38:20;;;;;;;;;;;7.60;99.90;;;;;;12256885;28;20046;-39
2021/11/20 22:44:23;;;;;;;80.93;42.05;;;7.60;99.90;;;;;;12253108;28;20444;-39
2021/11/20 22:50:28;;;;;;;82.43;42.38;;;7.50;99.90;;;;;;12253523;28;20082;-38
2021/11/20 22:56:34;;;;;;;80.85;43.08;;;7.50;99.90;;;;;;12256305;28;20062;-38
2021/11/20 23:02:36;;;;;;;82.10;42.30;;;7.50;99.90;;;;;;12233434;28;20111;-40
2021/11/20 23:08:38;;;;;;;72.82;40.65;;;7.50;99.90;;;;;;12248930;28;20063;-38
2021/11/20 23:14:42;;;;;;;77.50;43.08;;;7.40;99.90;;;;;;12260653;28;20149;-38
2021/11/20 23:20:45;;;;;;;73.43;39.90;;;7.40;99.90;;;;;;12255646;28;20174;-38
2021/11/20 23:26:47;;;;;;;74.32;40.00;;;7.40;99.90;;;;;;12264587;28;20051;-38
2021/11/20 23:32:49;;;;;;;75.63;40.83;;;7.40;99.90;;;;;;12264459;28;20047;-39
2021/11/20 23:38:51;;;;;;;78.00;38.08;;;7.40;99.90;;;;;;12261462;28;20055;-38
2021/11/20 23:44:53;;;;;;;82.18;41.22;;;7.40;99.90;;;;;;12257864;28;20044;-39
2021/11/20 23:50:55;;;;;;;77.03;39.65;;;7.40;99.90;;;;;;12260921;28;20142;-38
2021/11/20 23:56:57;;;;;;;76.38;38.60;;;7.40;99.90;;;;;;12248337;28;20131;-39
